createdAt,value
2023-05-20T00:00:04.906Z,31.83
2023-05-20T00:02:35.028Z,32.90
2023-05-20T00:05:03.844Z,44.70
2023-05-20T00:07:32.357Z,34.73
2023-05-20T00:10:01.263Z,39.90
2023-05-20T00:12:29.717Z,31.50
2023-05-20T00:14:58.177Z,34.23
2023-05-20T00:17:28.321Z,43.83
2023-05-20T00:20:00.147Z,36.87
2023-05-20T00:22:28.582Z,42.30
2023-05-20T00:24:56.978Z,35.40
2023-05-20T00:27:25.434Z,39.97
2023-05-20T00:29:54.363Z,41.03
2023-05-20T00:32:22.831Z,36.83
2023-05-20T00:34:59.133Z,41.13
2023-05-20T00:37:27.550Z,37.43
2023-05-20T00:39:56.211Z,42.53
2023-05-20T00:42:25.545Z,35.97
2023-05-20T00:44:54.464Z,39.37
2023-05-20T00:47:27.274Z,35.77
2023-05-20T00:49:56.243Z,41.57
2023-05-20T00:52:26.578Z,36.13
2023-05-20T00:54:55.080Z,35.37
2023-05-20T00:57:23.589Z,38.50
2023-05-20T00:59:52.363Z,43.27
2023-05-20T01:02:21.362Z,44.37
2023-05-20T01:04:49.717Z,40.03
2023-05-20T01:07:19.659Z,47.00
2023-05-20T01:09:49.703Z,41.30
2023-05-20T01:12:22.375Z,43.70
2023-05-20T01:14:52.291Z,31.30
2023-05-20T01:17:22.542Z,33.20
2023-05-20T01:19:51.592Z,36.30
2023-05-20T01:22:20.279Z,38.00
2023-05-20T01:24:49.931Z,28.73
2023-05-20T01:27:20.662Z,25.50
2023-05-20T01:29:50.848Z,29.03
2023-05-20T01:32:22.742Z,29.43
2023-05-20T01:34:53.061Z,28.93
2023-05-20T01:37:22.771Z,23.03
2023-05-20T01:39:53.301Z,27.60
2023-05-20T01:42:22.077Z,24.83
2023-05-20T01:44:50.616Z,21.07
2023-05-20T01:47:19.084Z,24.23
2023-05-20T01:49:48.063Z,21.63
2023-05-20T01:52:16.515Z,26.40
2023-05-20T01:54:50.913Z,22.47
2023-05-20T01:57:21.290Z,22.63
2023-05-20T01:59:50.007Z,21.80
2023-05-20T02:02:18.456Z,26.50
2023-05-20T02:04:48.938Z,21.53
2023-05-20T02:07:18.931Z,18.90
2023-05-20T02:09:48.415Z,19.00
2023-05-20T02:12:17.483Z,23.57
2023-05-20T02:14:50.344Z,17.23
2023-05-20T02:17:19.311Z,16.20
2023-05-20T02:19:48.235Z,24.07
2023-05-20T02:22:16.971Z,23.20
2023-05-20T02:24:46.014Z,23.70
2023-05-20T02:27:14.526Z,17.57
2023-05-20T02:29:46.214Z,18.83
2023-05-20T02:32:14.962Z,20.07
2023-05-20T02:34:43.478Z,16.87
2023-05-20T02:37:12.005Z,22.47
2023-05-20T02:39:40.527Z,17.77
2023-05-20T02:42:09.077Z,16.93
2023-05-20T02:44:37.520Z,17.20
2023-05-20T02:47:07.268Z,18.63
2023-05-20T02:49:36.085Z,19.80
2023-05-20T02:52:04.821Z,17.63
2023-05-20T02:54:33.342Z,19.00
2023-05-20T02:57:02.292Z,18.33
2023-05-20T02:59:31.156Z,18.47
2023-05-20T03:01:59.779Z,18.47
2023-05-20T03:04:29.715Z,17.93
2023-05-20T03:06:58.810Z,20.97
2023-05-20T03:09:27.661Z,16.93
2023-05-20T03:11:56.074Z,12.67
2023-05-20T03:14:24.502Z,17.20
2023-05-20T03:16:55.420Z,14.80
2023-05-20T03:19:24.188Z,16.10
2023-05-20T03:21:53.974Z,17.00
2023-05-20T03:24:23.629Z,17.30
2023-05-20T03:26:52.173Z,19.37
2023-05-20T03:29:21.368Z,19.47
2023-05-20T03:31:50.007Z,16.97
2023-05-20T03:34:18.500Z,19.43
2023-05-20T03:36:47.345Z,18.30
2023-05-20T03:39:17.238Z,17.67
2023-05-20T03:41:45.639Z,23.93
2023-05-20T03:44:14.128Z,19.13
2023-05-20T03:46:42.620Z,24.90
2023-05-20T03:49:11.457Z,17.57
2023-05-20T03:51:39.893Z,17.27
2023-05-20T03:54:08.272Z,20.87
2023-05-20T03:56:37.904Z,19.87
2023-05-20T03:59:06.371Z,19.07
2023-05-20T04:01:35.147Z,17.33
2023-05-20T04:04:03.772Z,18.00
2023-05-20T04:06:33.064Z,22.73
2023-05-20T04:09:01.544Z,18.63
2023-05-20T04:11:30.329Z,17.50
2023-05-20T04:14:00.499Z,15.23
2023-05-20T04:16:29.861Z,18.27
2023-05-20T04:18:59.425Z,14.17
2023-05-20T04:21:28.475Z,21.33
2023-05-20T04:23:56.940Z,14.10
2023-05-20T04:26:25.424Z,15.30
2023-05-20T04:28:53.995Z,18.90
2023-05-20T04:31:27.204Z,15.87
2023-05-20T04:33:56.040Z,14.43
2023-05-20T04:36:28.812Z,15.30
2023-05-20T04:38:57.803Z,16.17
2023-05-20T04:41:27.397Z,16.77
2023-05-20T04:43:59.866Z,15.33
2023-05-20T04:46:30.098Z,16.00
2023-05-20T04:48:58.701Z,14.13
2023-05-20T04:51:27.561Z,16.73
2023-05-20T04:53:56.049Z,15.43
2023-05-20T04:56:24.503Z,18.07
2023-05-20T04:58:53.183Z,18.77
2023-05-20T05:01:22.158Z,15.93
2023-05-20T05:03:51.919Z,20.10
2023-05-20T05:06:20.225Z,15.30
2023-05-20T05:08:48.718Z,16.50
2023-05-20T05:11:17.444Z,14.73
2023-05-20T05:13:45.937Z,17.07
2023-05-20T05:16:14.512Z,14.33
2023-05-20T05:18:42.987Z,15.27
2023-05-20T05:21:12.760Z,17.40
2023-05-20T05:23:42.579Z,11.10
2023-05-20T05:26:11.130Z,13.33
2023-05-20T05:28:39.564Z,12.83
2023-05-20T05:31:08.330Z,14.10
2023-05-20T05:33:36.770Z,11.20
2023-05-20T05:36:06.645Z,11.30
2023-05-20T05:38:36.718Z,15.87
2023-05-20T05:41:05.305Z,15.90
2023-05-20T05:43:33.861Z,17.73
2023-05-20T05:46:02.520Z,17.63
2023-05-20T05:48:30.916Z,14.90
2023-05-20T05:50:59.628Z,15.17
2023-05-20T05:53:28.143Z,13.80
2023-05-20T05:55:57.827Z,13.13
2023-05-20T05:58:26.381Z,13.50
2023-05-20T06:00:54.997Z,16.10
2023-05-20T06:03:24.092Z,14.37
2023-05-20T06:05:52.579Z,9.13
2023-05-20T06:08:21.103Z,14.23
2023-05-20T06:10:50.510Z,12.23
2023-05-20T06:13:21.739Z,9.77
2023-05-20T06:15:51.118Z,12.60
2023-05-20T06:18:19.550Z,13.47
2023-05-20T06:20:48.389Z,11.20
2023-05-20T06:23:17.183Z,11.82
2023-05-20T06:25:45.745Z,10.90
2023-05-20T06:28:14.367Z,12.53
2023-05-20T06:30:44.537Z,10.80
2023-05-20T06:33:13.030Z,14.13
2023-05-20T06:35:41.493Z,17.80
2023-05-20T06:38:09.903Z,11.30
2023-05-20T06:40:38.697Z,13.63
2023-05-20T06:43:07.277Z,12.03
2023-05-20T06:45:35.844Z,12.23
2023-05-20T06:48:05.672Z,14.07
2023-05-20T06:50:34.976Z,14.10
2023-05-20T06:53:04.376Z,13.32
2023-05-20T06:55:33.209Z,10.43
2023-05-20T06:58:01.984Z,10.90
2023-05-20T07:00:31.096Z,11.20
2023-05-20T07:02:59.508Z,11.88
2023-05-20T07:05:29.589Z,13.93
2023-05-20T07:07:58.122Z,12.18
2023-05-20T07:10:26.877Z,11.67
2023-05-20T07:12:55.607Z,13.63
2023-05-20T07:15:24.320Z,13.70
2023-05-20T07:17:52.823Z,14.93
2023-05-20T07:20:21.550Z,14.32
2023-05-20T07:22:51.437Z,14.18
2023-05-20T07:25:20.058Z,13.38
2023-05-20T07:27:48.713Z,10.05
2023-05-20T07:30:17.591Z,9.15
2023-05-20T07:32:46.252Z,14.47
2023-05-20T07:35:14.815Z,13.55
2023-05-20T07:37:43.302Z,13.67
2023-05-20T07:40:14.541Z,10.20
2023-05-20T07:42:43.019Z,11.27
2023-05-20T07:45:11.882Z,15.38
2023-05-20T07:47:40.550Z,10.50
2023-05-20T07:50:09.578Z,8.85
2023-05-20T07:52:51.876Z,12.13
2023-05-20T07:55:25.762Z,14.05
2023-05-20T07:57:54.285Z,10.55
2023-05-20T08:00:23.068Z,8.50
2023-05-20T08:02:52.180Z,15.75
2023-05-20T08:05:21.560Z,14.57
2023-05-20T08:07:49.979Z,20.05
2023-05-20T08:10:18.744Z,15.98
2023-05-20T08:12:49.008Z,17.15
2023-05-20T08:15:17.406Z,18.23
2023-05-20T08:17:46.158Z,21.77
2023-05-20T08:20:15.184Z,15.13
2023-05-20T08:22:43.624Z,16.65
2023-05-20T08:25:12.179Z,16.55
2023-05-20T08:27:41.409Z,15.65
2023-05-20T08:30:12.572Z,17.73
2023-05-20T08:32:41.154Z,15.73
2023-05-20T08:35:10.025Z,16.98
2023-05-20T08:37:38.537Z,18.75
2023-05-20T08:40:09.830Z,16.67
2023-05-20T08:42:41.748Z,21.25
2023-05-20T08:45:13.682Z,24.33
2023-05-20T08:47:44.119Z,24.88
2023-05-20T08:50:14.054Z,21.00
2023-05-20T08:52:45.404Z,21.27
2023-05-20T08:55:17.489Z,20.20
2023-05-20T08:57:47.298Z,20.47
2023-05-20T09:00:18.553Z,17.77
2023-05-20T09:02:47.509Z,20.88
2023-05-20T09:05:16.140Z,22.80
2023-05-20T09:07:44.642Z,21.02
2023-05-20T09:10:13.692Z,16.77
2023-05-20T09:12:42.127Z,19.95
2023-05-20T09:15:12.376Z,21.33
2023-05-20T09:17:42.006Z,21.15
2023-05-20T09:20:12.162Z,20.35
2023-05-20T09:22:41.202Z,21.13
2023-05-20T09:25:12.348Z,19.88
2023-05-20T09:27:41.626Z,23.98
2023-05-20T09:30:12.960Z,19.27
2023-05-20T09:32:42.641Z,14.90
2023-05-20T09:35:14.832Z,18.65
2023-05-20T09:37:44.566Z,22.40
2023-05-20T09:40:15.340Z,20.02
2023-05-20T09:42:49.280Z,19.92
2023-05-20T09:45:17.726Z,26.58
2023-05-20T09:47:47.819Z,22.45
2023-05-20T09:50:17.394Z,15.50
2023-05-20T09:52:45.970Z,18.90
2023-05-20T09:55:15.176Z,18.88
2023-05-20T09:57:43.965Z,19.45
2023-05-20T10:00:14.987Z,22.15
2023-05-20T10:02:47.063Z,25.05
2023-05-20T10:05:19.262Z,18.88
2023-05-20T10:08:12.942Z,19.90
2023-05-20T10:10:49.016Z,19.48
2023-05-20T10:13:29.218Z,17.98
2023-05-20T10:16:05.429Z,24.63
2023-05-20T10:18:46.874Z,18.05
2023-05-20T10:21:18.988Z,22.50
2023-05-20T10:23:47.504Z,21.30
2023-05-20T10:26:16.045Z,23.63
2023-05-20T10:28:45.169Z,24.60
2023-05-20T10:31:18.526Z,20.92
2023-05-20T10:33:49.570Z,17.67
2023-05-20T10:36:26.192Z,24.88
2023-05-20T10:38:55.711Z,22.35
2023-05-20T10:41:26.727Z,16.30
2023-05-20T10:44:03.146Z,17.83
2023-05-20T10:46:41.917Z,24.30
2023-05-20T10:49:26.822Z,21.10
2023-05-20T10:51:56.059Z,23.58
2023-05-20T10:54:24.565Z,21.50
2023-05-20T10:56:54.176Z,19.00
2023-05-20T10:59:23.418Z,24.50
2023-05-20T11:01:52.204Z,21.98
2023-05-20T11:04:22.081Z,16.73
2023-05-20T11:06:55.966Z,21.38
2023-05-20T11:09:24.841Z,21.80
2023-05-20T11:11:54.620Z,20.98
2023-05-20T11:14:23.574Z,27.73
2023-05-20T11:16:57.253Z,20.50
2023-05-20T11:19:27.631Z,22.15
2023-05-20T11:21:56.504Z,23.25
2023-05-20T11:24:27.664Z,19.55
2023-05-20T11:26:57.504Z,24.15
2023-05-20T11:29:29.161Z,22.42
2023-05-20T11:31:57.735Z,15.68
2023-05-20T11:34:29.319Z,16.15
2023-05-20T11:36:59.108Z,22.70
2023-05-20T11:39:30.791Z,16.60
2023-05-20T11:41:59.923Z,18.70
2023-05-20T11:44:28.339Z,16.55
2023-05-20T11:47:02.060Z,14.75
2023-05-20T11:49:32.352Z,19.08
2023-05-20T11:52:00.819Z,18.30
2023-05-20T11:54:29.366Z,17.35
2023-05-20T11:56:57.724Z,17.77
2023-05-20T11:59:26.343Z,22.70
2023-05-20T12:01:54.732Z,20.17
2023-05-20T12:04:23.289Z,17.42
2023-05-20T12:06:53.294Z,20.98
2023-05-20T12:09:22.603Z,19.98
2023-05-20T12:11:51.111Z,19.63
2023-05-20T12:14:19.574Z,18.55
2023-05-20T12:16:47.988Z,15.45
2023-05-20T12:19:16.918Z,15.75
2023-05-20T12:21:47.262Z,14.65
2023-05-20T12:24:16.993Z,16.95
2023-05-20T12:26:45.456Z,12.45
2023-05-20T12:29:14.287Z,17.63
2023-05-20T12:31:42.747Z,19.75
2023-05-20T12:34:11.196Z,12.88
2023-05-20T12:36:39.652Z,15.52
2023-05-20T12:39:09.480Z,16.58
2023-05-20T12:41:39.090Z,13.07
2023-05-20T12:44:07.515Z,17.13
2023-05-20T12:46:36.202Z,15.50
2023-05-20T12:49:05.244Z,16.35
2023-05-20T12:51:33.707Z,17.92
2023-05-20T12:54:03.141Z,18.60
2023-05-20T12:56:31.659Z,16.30
2023-05-20T12:59:02.123Z,14.88
2023-05-20T13:01:31.175Z,14.52
2023-05-20T13:03:59.785Z,17.00
2023-05-20T13:06:28.305Z,15.05
2023-05-20T13:08:56.861Z,14.63
2023-05-20T13:11:25.659Z,15.50
2023-05-20T13:13:55.783Z,18.92
2023-05-20T13:16:25.545Z,14.40
2023-05-20T13:18:54.134Z,14.80
2023-05-20T13:21:22.634Z,16.17
2023-05-20T13:23:51.059Z,12.68
2023-05-20T13:26:19.832Z,8.82
2023-05-20T13:28:48.419Z,15.18
2023-05-20T13:31:17.479Z,15.85
2023-05-20T13:33:47.140Z,15.52
2023-05-20T13:36:15.578Z,12.23
2023-05-20T13:38:44.031Z,15.23
2023-05-20T13:41:12.852Z,16.15
2023-05-20T13:43:42.194Z,17.55
2023-05-20T13:46:10.747Z,15.05
2023-05-20T13:48:39.406Z,9.05
2023-05-20T13:51:09.397Z,10.07
2023-05-20T13:53:38.012Z,21.15
2023-05-20T13:56:09.251Z,14.43
2023-05-20T13:58:38.119Z,15.75
2023-05-20T14:01:07.136Z,12.75
2023-05-20T14:03:37.407Z,13.48
2023-05-20T14:06:06.380Z,8.88
2023-05-20T14:08:36.121Z,12.38
2023-05-20T14:11:04.976Z,12.15
2023-05-20T14:13:33.357Z,18.55
2023-05-20T14:16:01.876Z,12.02
2023-05-20T14:18:30.426Z,16.90
2023-05-20T14:20:59.252Z,11.23
2023-05-20T14:23:27.747Z,12.27
2023-05-20T14:25:57.391Z,12.98
2023-05-20T14:28:25.917Z,12.25
2023-05-20T14:30:54.958Z,12.10
2023-05-20T14:33:23.458Z,7.82
2023-05-20T14:35:52.020Z,15.68
2023-05-20T14:38:21.804Z,9.07
2023-05-20T14:40:50.233Z,17.00
2023-05-20T14:43:20.050Z,13.48
2023-05-20T14:45:49.034Z,12.35
2023-05-20T14:48:17.512Z,15.70
2023-05-20T14:50:47.690Z,9.20
2023-05-20T14:53:19.367Z,10.55
2023-05-20T14:55:47.763Z,7.25
2023-05-20T14:58:16.087Z,14.45
2023-05-20T15:00:46.164Z,13.00
2023-05-20T15:03:14.768Z,13.02
2023-05-20T15:05:43.613Z,18.10
2023-05-20T15:08:12.078Z,13.10
2023-05-20T15:10:40.806Z,12.50
2023-05-20T15:13:09.323Z,7.88
2023-05-20T15:15:37.876Z,11.25
2023-05-20T15:18:07.697Z,21.13
2023-05-20T15:20:36.454Z,19.55
2023-05-20T15:23:05.478Z,17.08
2023-05-20T15:25:34.299Z,22.50
2023-05-20T15:28:02.959Z,15.40
2023-05-20T15:30:31.785Z,33.10
2023-05-20T15:33:00.348Z,14.40
2023-05-20T15:35:30.124Z,13.95
2023-05-20T15:37:58.526Z,20.17
2023-05-20T15:40:28.190Z,17.33
2023-05-20T15:42:57.276Z,19.67
2023-05-20T15:45:25.658Z,18.42
2023-05-20T15:47:54.365Z,21.48
2023-05-20T15:50:23.882Z,18.45
2023-05-20T15:52:54.060Z,19.63
2023-05-20T15:55:23.271Z,22.92
2023-05-20T15:57:52.174Z,26.33
2023-05-20T16:00:21.339Z,24.63
2023-05-20T16:02:49.896Z,25.90
2023-05-20T16:05:18.506Z,20.52
2023-05-20T16:07:48.406Z,21.23
2023-05-20T16:10:18.721Z,22.83
2023-05-20T16:12:47.342Z,19.13
2023-05-20T16:15:15.682Z,23.45
2023-05-20T16:17:44.061Z,23.25
2023-05-20T16:20:13.211Z,16.75
2023-05-20T16:22:41.624Z,20.15
2023-05-20T16:25:11.141Z,26.45
2023-05-20T16:27:40.763Z,18.80
2023-05-20T16:30:10.433Z,21.70
2023-05-20T16:32:39.018Z,22.55
2023-05-20T16:35:08.462Z,15.82
2023-05-20T16:37:36.900Z,22.23
2023-05-20T16:40:05.953Z,22.95
2023-05-20T16:42:34.401Z,22.08
2023-05-20T16:45:04.462Z,15.32
2023-05-20T16:47:34.216Z,28.27
2023-05-20T16:50:03.026Z,30.70
2023-05-20T16:52:31.716Z,21.75
2023-05-20T16:55:03.428Z,19.10
2023-05-20T16:57:32.644Z,24.88
2023-05-20T17:00:01.508Z,20.23
2023-05-20T17:02:31.551Z,21.15
2023-05-20T17:04:59.952Z,19.05
2023-05-20T17:07:28.407Z,24.98
2023-05-20T17:09:57.392Z,20.58
2023-05-20T17:12:25.941Z,21.73
2023-05-20T17:14:54.318Z,18.38
2023-05-20T17:17:22.874Z,19.88
2023-05-20T17:19:52.513Z,22.40
2023-05-20T17:22:20.940Z,23.48
2023-05-20T17:24:49.485Z,22.20
2023-05-20T17:27:17.897Z,22.48
2023-05-20T17:29:47.720Z,21.55
2023-05-20T17:32:16.201Z,24.98
2023-05-20T17:34:44.654Z,23.08
2023-05-20T17:37:14.316Z,19.30
2023-05-20T17:39:44.208Z,20.80
2023-05-20T17:42:12.620Z,19.73
2023-05-20T17:44:41.239Z,25.65
2023-05-20T17:47:09.561Z,18.35
2023-05-20T17:49:38.429Z,19.35
2023-05-20T17:52:07.536Z,23.20
2023-05-20T17:54:37.326Z,18.50
2023-05-20T17:57:06.047Z,21.08
2023-05-20T17:59:36.717Z,23.35
2023-05-20T18:02:06.230Z,23.58
2023-05-20T18:04:34.928Z,13.27
2023-05-20T18:07:04.380Z,20.10
2023-05-20T18:09:33.139Z,13.05
2023-05-20T18:12:02.784Z,23.35
2023-05-20T18:14:31.140Z,19.27
2023-05-20T18:16:59.751Z,22.25
2023-05-20T18:19:28.555Z,16.27
2023-05-20T18:21:57.129Z,19.00
2023-05-20T18:24:25.682Z,19.85
2023-05-20T18:26:53.957Z,26.80
2023-05-20T18:29:25.938Z,23.85
2023-05-20T18:31:54.542Z,16.48
2023-05-20T18:34:23.079Z,20.38
2023-05-20T18:36:51.832Z,25.92
2023-05-20T18:39:21.051Z,15.85
2023-05-20T18:41:49.589Z,19.70
2023-05-20T18:44:18.793Z,20.35
2023-05-20T18:46:48.628Z,17.38
2023-05-20T18:49:17.534Z,22.15
2023-05-20T18:51:46.223Z,23.15
2023-05-20T18:54:14.709Z,22.60
2023-05-20T18:56:43.126Z,22.13
2023-05-20T18:59:11.748Z,21.33
2023-05-20T19:01:40.512Z,20.10
2023-05-20T19:04:10.466Z,22.65
2023-05-20T19:06:40.266Z,20.13
2023-05-20T19:09:09.178Z,27.67
2023-05-20T19:11:37.447Z,25.50
2023-05-20T19:14:07.797Z,23.75
2023-05-20T19:16:36.347Z,25.27
2023-05-20T19:19:04.923Z,16.80
2023-05-20T19:21:34.672Z,24.63
2023-05-20T19:24:03.351Z,18.92
2023-05-20T19:26:33.598Z,22.08
2023-05-20T19:29:02.241Z,24.80
2023-05-20T19:31:31.180Z,22.90
2023-05-20T19:33:59.752Z,24.25
2023-05-20T19:36:28.259Z,21.70
2023-05-20T19:38:58.355Z,26.05
2023-05-20T19:41:27.334Z,21.10
2023-05-20T19:43:55.751Z,30.08
2023-05-20T19:46:24.240Z,21.67
2023-05-20T19:48:52.698Z,22.88
2023-05-20T19:51:21.389Z,19.98
2023-05-20T19:53:49.962Z,20.40
2023-05-20T19:56:21.844Z,22.40
2023-05-20T19:58:50.950Z,13.07
2023-05-20T20:01:20.423Z,17.25
2023-05-20T20:03:48.991Z,25.95
2023-05-20T20:06:17.504Z,20.13
2023-05-20T20:08:46.473Z,26.10
2023-05-20T20:11:15.529Z,21.27
2023-05-20T20:13:45.195Z,31.15
2023-05-20T20:16:13.622Z,25.33
2023-05-20T20:18:42.603Z,19.85
2023-05-20T20:21:11.404Z,23.27
2023-05-20T20:23:41.493Z,29.65
2023-05-20T20:26:13.692Z,16.95
2023-05-20T20:28:42.103Z,21.65
2023-05-20T20:31:12.271Z,19.88
2023-05-20T20:33:40.845Z,23.23
2023-05-20T20:36:09.949Z,23.95
2023-05-20T20:38:38.663Z,18.25
2023-05-20T20:41:09.584Z,25.33
2023-05-20T20:43:38.233Z,18.58
2023-05-20T20:46:07.348Z,25.65
2023-05-20T20:48:37.072Z,25.80
2023-05-20T20:51:05.904Z,20.27
2023-05-20T20:53:34.320Z,19.83
2023-05-20T20:56:03.417Z,19.02
2023-05-20T20:58:35.019Z,22.17
2023-05-20T21:01:04.285Z,24.13
2023-05-20T21:03:34.174Z,22.38
2023-05-20T21:06:04.308Z,25.05
2023-05-20T21:08:32.877Z,23.95
2023-05-20T21:11:01.775Z,24.30
2023-05-20T21:13:31.369Z,19.45
2023-05-20T21:15:59.955Z,33.10
2023-05-20T21:18:28.380Z,19.75
2023-05-20T21:20:57.395Z,32.40
2023-05-20T21:23:27.198Z,20.27
2023-05-20T21:25:55.742Z,33.58
2023-05-20T21:28:24.270Z,21.38
2023-05-20T21:30:53.000Z,29.33
2023-05-20T21:33:21.542Z,27.98
2023-05-20T21:35:49.964Z,29.98
2023-05-20T21:38:18.356Z,23.38
2023-05-20T21:40:48.378Z,26.10
2023-05-20T21:43:16.975Z,24.02
2023-05-20T21:45:45.754Z,21.87
2023-05-20T21:48:14.086Z,22.23
2023-05-20T21:50:42.919Z,25.47
2023-05-20T21:53:11.319Z,27.73
2023-05-20T21:55:39.710Z,34.83
2023-05-20T21:58:09.527Z,32.10
2023-05-20T22:00:38.056Z,31.50
2023-05-20T22:03:06.582Z,30.87
2023-05-20T22:05:35.330Z,32.03
2023-05-20T22:08:04.042Z,27.67
2023-05-20T22:10:33.825Z,30.15
2023-05-20T22:13:03.146Z,26.75
2023-05-20T22:15:33.055Z,28.47
2023-05-20T22:18:04.169Z,36.03
2023-05-20T22:20:34.414Z,29.90
2023-05-20T22:23:04.605Z,33.33
2023-05-20T22:25:33.555Z,32.55
2023-05-20T22:28:04.699Z,31.67
2023-05-20T22:30:34.789Z,31.53
2023-05-20T22:33:03.331Z,32.67
2023-05-20T22:35:32.001Z,27.60
2023-05-20T22:38:00.638Z,30.75
2023-05-20T22:40:29.241Z,32.90
2023-05-20T22:42:57.784Z,30.17
2023-05-20T22:45:26.444Z,39.77
2023-05-20T22:47:56.179Z,33.83
2023-05-20T22:50:26.452Z,30.15
2023-05-20T22:52:55.044Z,33.97
2023-05-20T22:55:24.408Z,30.95
2023-05-20T22:57:53.056Z,30.50
2023-05-20T23:00:21.791Z,33.83
2023-05-20T23:02:52.324Z,29.33
2023-05-20T23:05:22.398Z,33.47
2023-05-20T23:07:53.132Z,39.30
2023-05-20T23:10:22.156Z,33.38
2023-05-20T23:12:51.161Z,29.08
2023-05-20T23:15:19.746Z,43.00
2023-05-20T23:17:50.680Z,33.87
2023-05-20T23:20:23.134Z,34.90
2023-05-20T23:22:51.722Z,36.90
2023-05-20T23:25:20.156Z,33.05
2023-05-20T23:27:48.694Z,35.87
2023-05-20T23:30:17.469Z,34.70
2023-05-20T23:32:46.450Z,39.70
2023-05-20T23:35:14.900Z,39.15
2023-05-20T23:37:44.632Z,41.13
2023-05-20T23:40:14.083Z,37.77
2023-05-20T23:42:42.715Z,37.87
2023-05-20T23:45:12.281Z,36.03
2023-05-20T23:47:40.796Z,41.92
2023-05-20T23:50:09.966Z,36.47
2023-05-20T23:52:40.287Z,37.83
2023-05-20T23:55:12.902Z,42.20
2023-05-20T23:57:41.442Z,40.88
